THY1B LATI-LOWW
Flight info
| Callsign | THY1B |
|---|---|
| Flight time | 1h 21m |
| Altitude | 30000 |
| Route | INLOT2R INLOT DCT RETRA DCT OBUTI OBUTI2W |
| Aircraft | A320/L-V/N |
Departure
| Time | 2026-05-04 20:35 |
|---|---|
| Airport | Tirana International Airport Mother Teresa (LATI) |
Arrival
| Time | 2026-05-04 21:57 |
|---|---|
| Airport | Vienna International Airport (LOWW) |
| Time | Latitude | Longitude | Altitude | Speed | Heading |
|---|---|---|---|---|---|
| 2026-05-04 20:19 | 41.42263 | 19.71482 | 117 ft | 0 kts | 264° |
| 2026-05-04 20:29 | 41.42264 | 19.71491 | 112 ft | 4 kts | 267° |
| 2026-05-04 20:29 | 41.42260 | 19.71524 | 112 ft | 4 kts | 306° |
| 2026-05-04 20:29 | 41.42241 | 19.71542 | 114 ft | 3 kts | 353° |
| 2026-05-04 20:30 | 41.42239 | 19.71543 | 114 ft | 0 kts | 354° |
| 2026-05-04 20:32 | 41.42259 | 19.71540 | 112 ft | 7 kts | 354° |
| 2026-05-04 20:32 | 41.42337 | 19.71530 | 116 ft | 15 kts | 354° |
| 2026-05-04 20:32 | 41.42470 | 19.71511 | 113 ft | 23 kts | 354° |
| 2026-05-04 20:33 | 41.42626 | 19.71491 | 115 ft | 17 kts | 2° |
| 2026-05-04 20:33 | 41.42674 | 19.71552 | 114 ft | 5 kts | 103° |
| 2026-05-04 20:33 | 41.42675 | 19.71643 | 114 ft | 13 kts | 85° |
| 2026-05-04 20:33 | 41.42684 | 19.71772 | 114 ft | 15 kts | 83° |
| 2026-05-04 20:34 | 41.42670 | 19.71901 | 112 ft | 14 kts | 143° |
| 2026-05-04 20:34 | 41.42602 | 19.71908 | 113 ft | 1 kts | 172° |
| 2026-05-04 20:34 | 41.42572 | 19.71913 | 113 ft | 14 kts | 172° |
| 2026-05-04 20:34 | 41.42161 | 19.71971 | 117 ft | 104 kts | 174° |
| 2026-05-04 20:35 | 41.41181 | 19.72103 | 121 ft | 175 kts | 173° |
| 2026-05-04 20:35 | 41.39843 | 19.72269 | 590 ft | 200 kts | 175° |
| 2026-05-04 20:35 | 41.38434 | 19.72380 | 1552 ft | 202 kts | 178° |
| 2026-05-04 20:35 | 41.37057 | 19.72165 | 2604 ft | 202 kts | 206° |
| 2026-05-04 20:36 | 41.36114 | 19.70788 | 3418 ft | 210 kts | 251° |
| 2026-05-04 20:36 | 41.36158 | 19.68895 | 4373 ft | 208 kts | 296° |
| 2026-05-04 20:36 | 41.37155 | 19.67603 | 5345 ft | 201 kts | 341° |
| 2026-05-04 20:36 | 41.38494 | 19.67195 | 6335 ft | 194 kts | 350° |
| 2026-05-04 20:37 | 41.39779 | 19.66816 | 7265 ft | 188 kts | 348° |
| 2026-05-04 20:37 | 41.41063 | 19.66401 | 8006 ft | 196 kts | 348° |
| 2026-05-04 20:37 | 41.42437 | 19.65925 | 8645 ft | 209 kts | 347° |
| 2026-05-04 20:37 | 41.43835 | 19.65382 | 9610 ft | 205 kts | 345° |
| 2026-05-04 20:38 | 41.45259 | 19.64809 | 10158 ft | 226 kts | 347° |
| 2026-05-04 20:38 | 41.46877 | 19.64259 | 10437 ft | 256 kts | 348° |
| 2026-05-04 20:38 | 41.48665 | 19.63667 | 10784 ft | 280 kts | 347° |
| 2026-05-04 20:38 | 41.50629 | 19.62984 | 11159 ft | 302 kts | 347° |
| 2026-05-04 20:39 | 41.52726 | 19.62228 | 11532 ft | 321 kts | 346° |
| 2026-05-04 20:39 | 41.54946 | 19.61410 | 11903 ft | 339 kts | 346° |
| 2026-05-04 20:39 | 41.57279 | 19.60538 | 12288 ft | 356 kts | 346° |
| 2026-05-04 20:39 | 41.59720 | 19.59622 | 12669 ft | 371 kts | 346° |
| 2026-05-04 20:40 | 41.62259 | 19.58674 | 13057 ft | 385 kts | 346° |
| 2026-05-04 20:40 | 41.64888 | 19.57696 | 13495 ft | 398 kts | 346° |
| 2026-05-04 20:40 | 41.67551 | 19.56706 | 14132 ft | 403 kts | 346° |
| 2026-05-04 20:40 | 41.70279 | 19.55690 | 14732 ft | 408 kts | 346° |
| 2026-05-04 20:41 | 41.73031 | 19.54665 | 15349 ft | 412 kts | 346° |
| 2026-05-04 20:41 | 41.75806 | 19.53628 | 15988 ft | 415 kts | 346° |
| 2026-05-04 20:41 | 41.78600 | 19.52583 | 16670 ft | 417 kts | 346° |
| 2026-05-04 20:41 | 41.81409 | 19.51532 | 17371 ft | 419 kts | 346° |
| 2026-05-04 20:42 | 41.84191 | 19.50490 | 18066 ft | 420 kts | 345° |
| 2026-05-04 20:42 | 41.87017 | 19.49433 | 18753 ft | 421 kts | 345° |
| 2026-05-04 20:42 | 41.89848 | 19.48371 | 19395 ft | 422 kts | 345° |
| 2026-05-04 20:42 | 41.92688 | 19.47303 | 20050 ft | 423 kts | 345° |
| 2026-05-04 20:43 | 41.95494 | 19.46244 | 20704 ft | 422 kts | 345° |
| 2026-05-04 20:43 | 41.98322 | 19.45167 | 21373 ft | 421 kts | 344° |
| 2026-05-04 20:43 | 42.01106 | 19.43991 | 22069 ft | 418 kts | 342° |
| 2026-05-04 20:43 | 42.03846 | 19.42717 | 22786 ft | 413 kts | 341° |
| 2026-05-04 20:44 | 42.06539 | 19.41397 | 23521 ft | 409 kts | 340° |
| 2026-05-04 20:44 | 42.09193 | 19.40076 | 24173 ft | 404 kts | 340° |
| 2026-05-04 20:44 | 42.11793 | 19.38788 | 24802 ft | 399 kts | 340° |
| 2026-05-04 20:44 | 42.14393 | 19.37519 | 25434 ft | 394 kts | 340° |
| 2026-05-04 20:45 | 42.16967 | 19.36282 | 26100 ft | 388 kts | 340° |
| 2026-05-04 20:45 | 42.19500 | 19.35073 | 26774 ft | 382 kts | 341° |
| 2026-05-04 20:45 | 42.21989 | 19.33887 | 27459 ft | 376 kts | 340° |
| 2026-05-04 20:45 | 42.24333 | 19.32484 | 28164 ft | 369 kts | 334° |
| 2026-05-04 20:46 | 42.26607 | 19.30934 | 28895 ft | 362 kts | 333° |
| 2026-05-04 20:46 | 42.28830 | 19.29419 | 29633 ft | 354 kts | 333° |
| 2026-05-04 20:46 | 42.31031 | 19.27916 | 30034 ft | 356 kts | 333° |
| 2026-05-04 20:46 | 42.33275 | 19.26382 | 30137 ft | 365 kts | 333° |
| 2026-05-04 20:47 | 42.35576 | 19.24806 | 30140 ft | 376 kts | 333° |
| 2026-05-04 20:47 | 42.37948 | 19.23178 | 30140 ft | 386 kts | 333° |
| 2026-05-04 20:47 | 42.42834 | 19.19831 | 30139 ft | 406 kts | 333° |
| 2026-05-04 20:48 | 42.47999 | 19.16283 | 30139 ft | 424 kts | 333° |
| 2026-05-04 20:48 | 42.53382 | 19.12580 | 30142 ft | 441 kts | 333° |
| 2026-05-04 20:49 | 42.58876 | 19.08792 | 30143 ft | 448 kts | 333° |
| 2026-05-04 20:49 | 42.64466 | 19.04932 | 30145 ft | 451 kts | 333° |
| 2026-05-04 20:50 | 42.70079 | 19.01043 | 30155 ft | 453 kts | 333° |
| 2026-05-04 20:50 | 42.75683 | 18.97150 | 30155 ft | 456 kts | 333° |
| 2026-05-04 20:51 | 42.81344 | 18.93221 | 30152 ft | 458 kts | 333° |
| 2026-05-04 20:51 | 42.87017 | 18.89272 | 30152 ft | 459 kts | 333° |
| 2026-05-04 20:52 | 42.89837 | 18.87305 | 30141 ft | 447 kts | 333° |
| 2026-05-04 20:52 | 42.92568 | 18.85398 | 30153 ft | 438 kts | 333° |
| 2026-05-04 20:52 | 42.98026 | 18.81576 | 30150 ft | 440 kts | 333° |
| 2026-05-04 20:53 | 43.03443 | 18.77773 | 30139 ft | 441 kts | 333° |
| 2026-05-04 20:53 | 43.08908 | 18.73941 | 30147 ft | 441 kts | 332° |
| 2026-05-04 20:54 | 43.14353 | 18.70118 | 30144 ft | 442 kts | 332° |
| 2026-05-04 20:54 | 43.19835 | 18.66250 | 30144 ft | 442 kts | 332° |
| 2026-05-04 20:55 | 43.25309 | 18.62382 | 30141 ft | 443 kts | 332° |
| 2026-05-04 20:55 | 43.30799 | 18.58502 | 30142 ft | 443 kts | 332° |
| 2026-05-04 20:56 | 43.36248 | 18.54637 | 30139 ft | 443 kts | 332° |
| 2026-05-04 20:56 | 43.41739 | 18.50730 | 30139 ft | 443 kts | 332° |
| 2026-05-04 20:57 | 43.47207 | 18.46836 | 30136 ft | 444 kts | 332° |
| 2026-05-04 20:57 | 43.52704 | 18.42904 | 30126 ft | 444 kts | 332° |
| 2026-05-04 20:58 | 43.58170 | 18.38995 | 30122 ft | 445 kts | 332° |
| 2026-05-04 20:58 | 43.63681 | 18.35052 | 30116 ft | 445 kts | 332° |
| 2026-05-04 20:59 | 43.69151 | 18.31127 | 30111 ft | 446 kts | 332° |
| 2026-05-04 20:59 | 43.74660 | 18.27162 | 30111 ft | 446 kts | 332° |
| 2026-05-04 21:00 | 43.80176 | 18.23190 | 30112 ft | 446 kts | 332° |
| 2026-05-04 21:00 | 43.85663 | 18.19219 | 30110 ft | 446 kts | 332° |
| 2026-05-04 21:01 | 43.91146 | 18.15247 | 30108 ft | 446 kts | 332° |
| 2026-05-04 21:01 | 43.96667 | 18.11242 | 30101 ft | 447 kts | 332° |
| 2026-05-04 21:02 | 44.02181 | 18.07225 | 30092 ft | 448 kts | 332° |
| 2026-05-04 21:02 | 44.07687 | 18.03226 | 30084 ft | 448 kts | 332° |
| 2026-05-04 21:03 | 44.12291 | 17.99867 | 30081 ft | 448 kts | 332° |
| 2026-05-04 21:03 | 44.17814 | 17.95821 | 30082 ft | 449 kts | 332° |
| 2026-05-04 21:04 | 44.23344 | 17.91758 | 30079 ft | 449 kts | 332° |
| 2026-05-04 21:04 | 44.28849 | 17.87709 | 30069 ft | 449 kts | 332° |
| 2026-05-04 21:05 | 44.34396 | 17.83632 | 30078 ft | 449 kts | 332° |
| 2026-05-04 21:05 | 44.39897 | 17.79567 | 30067 ft | 450 kts | 331° |
| 2026-05-04 21:06 | 44.45454 | 17.75450 | 30081 ft | 451 kts | 331° |
| 2026-05-04 21:06 | 44.50975 | 17.71366 | 30072 ft | 451 kts | 331° |
| 2026-05-04 21:07 | 44.56540 | 17.67234 | 30070 ft | 451 kts | 331° |
| 2026-05-04 21:07 | 44.62107 | 17.63094 | 30069 ft | 452 kts | 331° |
| 2026-05-04 21:08 | 44.67641 | 17.58968 | 30064 ft | 452 kts | 331° |
| 2026-05-04 21:08 | 44.73190 | 17.54823 | 30056 ft | 453 kts | 331° |
| 2026-05-04 21:09 | 44.78764 | 17.50641 | 30058 ft | 453 kts | 331° |
| 2026-05-04 21:09 | 44.84347 | 17.46446 | 30055 ft | 454 kts | 331° |
| 2026-05-04 21:10 | 44.89925 | 17.42258 | 30056 ft | 454 kts | 331° |
| 2026-05-04 21:10 | 44.95467 | 17.38079 | 30058 ft | 454 kts | 331° |
| 2026-05-04 21:11 | 45.01048 | 17.33852 | 30051 ft | 455 kts | 331° |
| 2026-05-04 21:11 | 45.06635 | 17.29621 | 30050 ft | 456 kts | 331° |
| 2026-05-04 21:12 | 45.12217 | 17.25380 | 30054 ft | 456 kts | 331° |
| 2026-05-04 21:12 | 45.17832 | 17.21103 | 30051 ft | 456 kts | 331° |
| 2026-05-04 21:13 | 45.23397 | 17.16863 | 30053 ft | 457 kts | 331° |
| 2026-05-04 21:13 | 45.29006 | 17.12571 | 30054 ft | 457 kts | 331° |
| 2026-05-04 21:14 | 45.34584 | 17.08294 | 30051 ft | 458 kts | 331° |
| 2026-05-04 21:14 | 45.40207 | 17.03972 | 30051 ft | 459 kts | 331° |
| 2026-05-04 21:15 | 45.45832 | 16.99649 | 30051 ft | 459 kts | 331° |
| 2026-05-04 21:15 | 45.51434 | 16.95335 | 30050 ft | 459 kts | 330° |
| 2026-05-04 21:16 | 45.57065 | 16.90978 | 30045 ft | 460 kts | 330° |
| 2026-05-04 21:16 | 45.62708 | 16.86612 | 30046 ft | 461 kts | 330° |
| 2026-05-04 21:17 | 45.68319 | 16.82258 | 30048 ft | 461 kts | 330° |
| 2026-05-04 21:17 | 45.73970 | 16.77855 | 30049 ft | 462 kts | 330° |
| 2026-05-04 21:18 | 45.79586 | 16.73460 | 30045 ft | 462 kts | 330° |
| 2026-05-04 21:18 | 45.85239 | 16.69041 | 30045 ft | 461 kts | 330° |
| 2026-05-04 21:19 | 45.88011 | 16.66874 | 30040 ft | 445 kts | 330° |
| 2026-05-04 21:19 | 45.90679 | 16.64789 | 30045 ft | 428 kts | 330° |
| 2026-05-04 21:19 | 45.95774 | 16.60794 | 30042 ft | 415 kts | 330° |
| 2026-05-04 21:20 | 46.00786 | 16.56842 | 30042 ft | 406 kts | 330° |
| 2026-05-04 21:20 | 46.05710 | 16.52953 | 29768 ft | 404 kts | 330° |
| 2026-05-04 21:21 | 46.08164 | 16.51011 | 29353 ft | 409 kts | 330° |
| 2026-05-04 21:21 | 46.10679 | 16.49017 | 28935 ft | 415 kts | 330° |
| 2026-05-04 21:21 | 46.13228 | 16.46998 | 28529 ft | 420 kts | 330° |
| 2026-05-04 21:21 | 46.15806 | 16.44954 | 28122 ft | 425 kts | 330° |
| 2026-05-04 21:22 | 46.18386 | 16.42908 | 27728 ft | 430 kts | 330° |
| 2026-05-04 21:22 | 46.21028 | 16.40809 | 27342 ft | 435 kts | 330° |
| 2026-05-04 21:22 | 46.23701 | 16.38681 | 26958 ft | 439 kts | 330° |
| 2026-05-04 21:22 | 46.26367 | 16.36557 | 26599 ft | 443 kts | 330° |
| 2026-05-04 21:23 | 46.29071 | 16.34404 | 26407 ft | 442 kts | 330° |
| 2026-05-04 21:23 | 46.31763 | 16.32257 | 26256 ft | 441 kts | 330° |
| 2026-05-04 21:23 | 46.34439 | 16.30079 | 26105 ft | 439 kts | 327° |
| 2026-05-04 21:23 | 46.36889 | 16.27438 | 25941 ft | 437 kts | 317° |
| 2026-05-04 21:24 | 46.38956 | 16.24313 | 25806 ft | 434 kts | 308° |
| 2026-05-04 21:24 | 46.40671 | 16.20725 | 25655 ft | 431 kts | 300° |
| 2026-05-04 21:24 | 46.42247 | 16.17016 | 25505 ft | 430 kts | 300° |
| 2026-05-04 21:24 | 46.43819 | 16.13325 | 25363 ft | 429 kts | 301° |
| 2026-05-04 21:25 | 46.45384 | 16.09650 | 25220 ft | 427 kts | 301° |
| 2026-05-04 21:25 | 46.46944 | 16.05990 | 25076 ft | 426 kts | 301° |
| 2026-05-04 21:25 | 46.48497 | 16.02334 | 24923 ft | 424 kts | 301° |
| 2026-05-04 21:25 | 46.50021 | 15.98733 | 24790 ft | 423 kts | 301° |
| 2026-05-04 21:26 | 46.51557 | 15.95089 | 24645 ft | 421 kts | 301° |
| 2026-05-04 21:26 | 46.53089 | 15.91450 | 24511 ft | 420 kts | 301° |
| 2026-05-04 21:26 | 46.54614 | 15.87832 | 24374 ft | 418 kts | 301° |
| 2026-05-04 21:26 | 46.56129 | 15.84233 | 24235 ft | 416 kts | 301° |
| 2026-05-04 21:27 | 46.57616 | 15.80697 | 24098 ft | 415 kts | 301° |
| 2026-05-04 21:27 | 46.59115 | 15.77121 | 23954 ft | 413 kts | 300° |
| 2026-05-04 21:27 | 46.60609 | 15.73549 | 23815 ft | 412 kts | 300° |
| 2026-05-04 21:27 | 46.62097 | 15.69987 | 23683 ft | 411 kts | 300° |
| 2026-05-04 21:28 | 46.63563 | 15.66476 | 23537 ft | 410 kts | 300° |
| 2026-05-04 21:28 | 46.65042 | 15.62938 | 23369 ft | 409 kts | 300° |
| 2026-05-04 21:28 | 46.66520 | 15.59396 | 23201 ft | 408 kts | 300° |
| 2026-05-04 21:28 | 46.67996 | 15.55857 | 23038 ft | 407 kts | 300° |
| 2026-05-04 21:29 | 46.69450 | 15.52366 | 22871 ft | 407 kts | 300° |
| 2026-05-04 21:29 | 46.70919 | 15.48827 | 22708 ft | 407 kts | 300° |
| 2026-05-04 21:29 | 46.72381 | 15.45291 | 22542 ft | 406 kts | 300° |
| 2026-05-04 21:29 | 46.73839 | 15.41754 | 22385 ft | 406 kts | 300° |
| 2026-05-04 21:30 | 46.75280 | 15.38263 | 22227 ft | 406 kts | 300° |
| 2026-05-04 21:30 | 46.76740 | 15.34733 | 22068 ft | 406 kts | 300° |
| 2026-05-04 21:30 | 46.78201 | 15.31195 | 21911 ft | 406 kts | 300° |
| 2026-05-04 21:30 | 46.79660 | 15.27660 | 21749 ft | 406 kts | 300° |
| 2026-05-04 21:31 | 46.82574 | 15.20572 | 21454 ft | 406 kts | 299° |
| 2026-05-04 21:31 | 46.84014 | 15.17068 | 21303 ft | 407 kts | 299° |
| 2026-05-04 21:31 | 46.85474 | 15.13512 | 21158 ft | 407 kts | 298° |
| 2026-05-04 21:32 | 46.86926 | 15.09960 | 21006 ft | 407 kts | 298° |
| 2026-05-04 21:32 | 46.88379 | 15.06402 | 20857 ft | 407 kts | 299° |
| 2026-05-04 21:32 | 46.89812 | 15.02892 | 20692 ft | 407 kts | 299° |
| 2026-05-04 21:32 | 46.91263 | 14.99336 | 20565 ft | 407 kts | 299° |
| 2026-05-04 21:33 | 46.92709 | 14.95782 | 20418 ft | 407 kts | 298° |
| 2026-05-04 21:33 | 46.94156 | 14.92224 | 20011 ft | 403 kts | 298° |
| 2026-05-04 21:33 | 46.95583 | 14.88714 | 19613 ft | 398 kts | 298° |
| 2026-05-04 21:33 | 46.96991 | 14.85242 | 19214 ft | 394 kts | 298° |
| 2026-05-04 21:34 | 46.98368 | 14.81847 | 18803 ft | 389 kts | 298° |
| 2026-05-04 21:34 | 46.99746 | 14.78445 | 18304 ft | 386 kts | 298° |
| 2026-05-04 21:34 | 47.01126 | 14.75036 | 17564 ft | 389 kts | 298° |
| 2026-05-04 21:34 | 47.02490 | 14.71659 | 16847 ft | 391 kts | 298° |
| 2026-05-04 21:35 | 47.03884 | 14.68200 | 16122 ft | 393 kts | 298° |
| 2026-05-04 21:35 | 47.05278 | 14.64738 | 15429 ft | 394 kts | 298° |
| 2026-05-04 21:35 | 47.06673 | 14.61273 | 14747 ft | 393 kts | 298° |
| 2026-05-04 21:35 | 47.08063 | 14.57817 | 14064 ft | 393 kts | 298° |
| 2026-05-04 21:36 | 47.09432 | 14.54401 | 13372 ft | 391 kts | 298° |
| 2026-05-04 21:36 | 47.10809 | 14.50958 | 12664 ft | 390 kts | 298° |
| 2026-05-04 21:36 | 47.12213 | 14.47595 | 12194 ft | 383 kts | 304° |
| 2026-05-04 21:36 | 47.14191 | 14.45032 | 11764 ft | 379 kts | 329° |
| 2026-05-04 21:37 | 47.16689 | 14.43944 | 11345 ft | 376 kts | 355° |
| 2026-05-04 21:37 | 47.19238 | 14.44508 | 10931 ft | 372 kts | 21° |
| 2026-05-04 21:37 | 47.21357 | 14.46607 | 10504 ft | 366 kts | 47° |
| 2026-05-04 21:37 | 47.22634 | 14.49799 | 9999 ft | 362 kts | 74° |
| 2026-05-04 21:38 | 47.22853 | 14.53394 | 9471 ft | 356 kts | 96° |
| 2026-05-04 21:38 | 47.22624 | 14.57017 | 8923 ft | 353 kts | 97° |
| 2026-05-04 21:38 | 47.22394 | 14.60604 | 8392 ft | 350 kts | 96° |
| 2026-05-04 21:38 | 47.22164 | 14.64159 | 7864 ft | 348 kts | 97° |
| 2026-05-04 21:39 | 47.21935 | 14.67687 | 7348 ft | 346 kts | 97° |
| 2026-05-04 21:39 | 47.21710 | 14.71168 | 6889 ft | 342 kts | 97° |
| 2026-05-04 21:39 | 47.21486 | 14.74643 | 6703 ft | 341 kts | 97° |
| 2026-05-04 21:39 | 47.21246 | 14.78295 | 6848 ft | 372 kts | 97° |
| 2026-05-04 21:40 | 47.20996 | 14.82075 | 7494 ft | 359 kts | 97° |
| 2026-05-04 21:40 | 47.20770 | 14.85543 | 8326 ft | 331 kts | 97° |
| 2026-05-04 21:40 | 47.20566 | 14.88778 | 9192 ft | 303 kts | 97° |
| 2026-05-04 21:40 | 47.20384 | 14.91756 | 9836 ft | 288 kts | 97° |
| 2026-05-04 21:41 | 47.20190 | 14.94863 | 10035 ft | 323 kts | 97° |
| 2026-05-04 21:41 | 47.19979 | 14.98300 | 10087 ft | 357 kts | 95° |
| 2026-05-04 21:41 | 47.20147 | 15.02060 | 10094 ft | 383 kts | 83° |
| 2026-05-04 21:41 | 47.20662 | 15.06057 | 10073 ft | 402 kts | 78° |
| 2026-05-04 21:42 | 47.21364 | 15.10077 | 10086 ft | 407 kts | 75° |
| 2026-05-04 21:42 | 47.22135 | 15.14038 | 10079 ft | 409 kts | 75° |
| 2026-05-04 21:42 | 47.22923 | 15.18060 | 10079 ft | 410 kts | 75° |
| 2026-05-04 21:42 | 47.23688 | 15.22125 | 10067 ft | 411 kts | 76° |
| 2026-05-04 21:43 | 47.24414 | 15.26219 | 10065 ft | 413 kts | 77° |
| 2026-05-04 21:43 | 47.25105 | 15.30334 | 10066 ft | 414 kts | 77° |
| 2026-05-04 21:43 | 47.25768 | 15.34420 | 10072 ft | 415 kts | 78° |
| 2026-05-04 21:43 | 47.26432 | 15.38571 | 10064 ft | 416 kts | 77° |
| 2026-05-04 21:44 | 47.27099 | 15.42725 | 10062 ft | 416 kts | 78° |
| 2026-05-04 21:44 | 47.27769 | 15.46866 | 10065 ft | 417 kts | 78° |
| 2026-05-04 21:44 | 47.28440 | 15.50981 | 10059 ft | 418 kts | 78° |
| 2026-05-04 21:44 | 47.29124 | 15.55155 | 10065 ft | 419 kts | 78° |
| 2026-05-04 21:45 | 47.29811 | 15.59338 | 10058 ft | 420 kts | 78° |
| 2026-05-04 21:45 | 47.30502 | 15.63551 | 10060 ft | 422 kts | 78° |
| 2026-05-04 21:45 | 47.31185 | 15.67765 | 10058 ft | 423 kts | 78° |
| 2026-05-04 21:45 | 47.31857 | 15.71940 | 10060 ft | 424 kts | 78° |
| 2026-05-04 21:46 | 47.32538 | 15.76176 | 10061 ft | 425 kts | 78° |
| 2026-05-04 21:46 | 47.33219 | 15.80421 | 10050 ft | 425 kts | 78° |
| 2026-05-04 21:46 | 47.33899 | 15.84653 | 10047 ft | 417 kts | 78° |
| 2026-05-04 21:46 | 47.34547 | 15.88699 | 10051 ft | 395 kts | 78° |
| 2026-05-04 21:47 | 47.35165 | 15.92570 | 10050 ft | 378 kts | 78° |
| 2026-05-04 21:47 | 47.35845 | 15.96244 | 10053 ft | 364 kts | 70° |
| 2026-05-04 21:47 | 47.36940 | 15.99499 | 10043 ft | 351 kts | 58° |
| 2026-05-04 21:47 | 47.38427 | 16.02293 | 10048 ft | 340 kts | 46° |
| 2026-05-04 21:48 | 47.40196 | 16.04516 | 10045 ft | 329 kts | 34° |
| 2026-05-04 21:48 | 47.42137 | 16.06125 | 10016 ft | 319 kts | 23° |
| 2026-05-04 21:48 | 47.44295 | 16.07278 | 9666 ft | 350 kts | 17° |
| 2026-05-04 21:48 | 47.46760 | 16.08480 | 9197 ft | 388 kts | 17° |
| 2026-05-04 21:49 | 47.49311 | 16.09732 | 8637 ft | 383 kts | 18° |
| 2026-05-04 21:49 | 47.51823 | 16.10978 | 8104 ft | 376 kts | 18° |
| 2026-05-04 21:49 | 47.53466 | 16.11796 | 7763 ft | 373 kts | 18° |
| 2026-05-04 21:49 | 47.56690 | 16.13400 | 7075 ft | 366 kts | 17° |
| 2026-05-04 21:50 | 47.59097 | 16.14597 | 6578 ft | 361 kts | 18° |
| 2026-05-04 21:50 | 47.64794 | 16.17443 | 5275 ft | 354 kts | 18° |
| 2026-05-04 21:50 | 47.72889 | 16.21521 | 4996 ft | 286 kts | 18° |
| 2026-05-04 21:50 | 47.74105 | 16.22157 | 5003 ft | 274 kts | 22° |
| 2026-05-04 21:51 | 47.75735 | 16.23467 | 5008 ft | 258 kts | 36° |
| 2026-05-04 21:51 | 47.77127 | 16.25257 | 5035 ft | 289 kts | 49° |
| 2026-05-04 21:51 | 47.78408 | 16.27904 | 5034 ft | 339 kts | 63° |
| 2026-05-04 21:51 | 47.79603 | 16.31066 | 4987 ft | 348 kts | 63° |
| 2026-05-04 21:52 | 47.82118 | 16.37664 | 4949 ft | 308 kts | 63° |
| 2026-05-04 21:52 | 47.86698 | 16.49742 | 3895 ft | 283 kts | 64° |
| 2026-05-04 21:52 | 47.87335 | 16.51428 | 3767 ft | 280 kts | 64° |
| 2026-05-04 21:52 | 47.88283 | 16.53932 | 3552 ft | 273 kts | 64° |
| 2026-05-04 21:53 | 47.89215 | 16.56402 | 3372 ft | 287 kts | 64° |
| 2026-05-04 21:53 | 47.90260 | 16.59213 | 3179 ft | 320 kts | 64° |
| 2026-05-04 21:53 | 47.91364 | 16.62132 | 3016 ft | 326 kts | 61° |
| 2026-05-04 21:53 | 47.92919 | 16.64560 | 3000 ft | 326 kts | 31° |
| 2026-05-04 21:54 | 47.95021 | 16.65573 | 3005 ft | 321 kts | 1° |
| 2026-05-04 21:54 | 47.97181 | 16.65256 | 2932 ft | 304 kts | 343° |
| 2026-05-04 21:54 | 47.99216 | 16.64311 | 2378 ft | 305 kts | 336° |
| 2026-05-04 21:54 | 48.01164 | 16.63149 | 2136 ft | 296 kts | 335° |
| 2026-05-04 21:55 | 48.03055 | 16.62025 | 1922 ft | 287 kts | 336° |
| 2026-05-04 21:55 | 48.04783 | 16.60939 | 1611 ft | 259 kts | 333° |
| 2026-05-04 21:55 | 48.06350 | 16.60162 | 1202 ft | 214 kts | 345° |
| 2026-05-04 21:55 | 48.07672 | 16.59603 | 944 ft | 179 kts | 345° |
| 2026-05-04 21:56 | 48.08872 | 16.59122 | 741 ft | 170 kts | 347° |
| 2026-05-04 21:56 | 48.09908 | 16.58686 | 631 ft | 142 kts | 346° |
| 2026-05-04 21:56 | 48.10536 | 16.58426 | 618 ft | 72 kts | 344° |
| 2026-05-04 21:56 | 48.10991 | 16.58242 | 617 ft | 64 kts | 343° |
| 2026-05-04 21:57 | 48.11358 | 16.58079 | 619 ft | 36 kts | 344° |
| 2026-05-04 21:57 | 48.11522 | 16.58012 | 604 ft | 21 kts | 345° |
| 2026-05-04 21:57 | 48.11537 | 16.58006 | 612 ft | 1 kts | 345° |
| 2026-05-04 21:57 | 48.11551 | 16.58000 | 618 ft | 3 kts | 345° |
| 2026-05-04 21:58 | 48.11552 | 16.58000 | 618 ft | 0 kts | 345° |
| 2026-05-04 21:58 | 48.11917 | 16.56719 | 599 ft | 0 kts | 200° |